createdAt,value
2018-03-06T00:00:50.172Z,0
2018-03-06T00:01:50.877Z,0
2018-03-06T00:02:51.818Z,0
2018-03-06T00:03:52.531Z,0
2018-03-06T00:04:53.235Z,0
2018-03-06T00:05:53.955Z,0
2018-03-06T00:06:54.678Z,0
2018-03-06T00:07:55.379Z,0
2018-03-06T00:08:56.085Z,0
2018-03-06T00:09:56.791Z,0
2018-03-06T00:10:57.496Z,0
2018-03-06T00:11:58.205Z,0
2018-03-06T00:12:58.909Z,0
2018-03-06T00:13:59.628Z,0
2018-03-06T00:15:00.332Z,0
2018-03-06T00:16:01.037Z,0
2018-03-06T00:17:01.746Z,0
2018-03-06T00:18:02.462Z,0
2018-03-06T00:19:03.167Z,0
2018-03-06T00:20:03.874Z,0
2018-03-06T00:21:04.592Z,0
2018-03-06T00:22:05.298Z,0
2018-03-06T00:23:06.005Z,0
2018-03-06T00:24:06.710Z,0
2018-03-06T00:25:07.417Z,0
2018-03-06T00:26:08.115Z,0
2018-03-06T00:27:08.820Z,0
2018-03-06T00:28:09.526Z,0
2018-03-06T00:29:10.233Z,0
2018-03-06T00:30:10.938Z,0
2018-03-06T00:31:11.645Z,0
2018-03-06T00:32:12.351Z,0
2018-03-06T00:33:13.058Z,0
2018-03-06T00:34:13.782Z,0
2018-03-06T00:35:14.492Z,0
2018-03-06T00:36:15.197Z,0
2018-03-06T00:37:15.903Z,0
2018-03-06T00:38:16.610Z,0
2018-03-06T00:39:17.317Z,0
2018-03-06T00:40:18.023Z,0
2018-03-06T00:41:18.729Z,0
2018-03-06T00:42:19.435Z,0
2018-03-06T00:43:20.141Z,0
2018-03-06T00:44:20.854Z,0
2018-03-06T00:45:21.559Z,0
2018-03-06T00:46:22.264Z,0
2018-03-06T00:47:22.970Z,0
2018-03-06T00:48:23.675Z,0
2018-03-06T00:49:24.380Z,0
2018-03-06T00:50:25.138Z,0
2018-03-06T00:51:25.792Z,0
2018-03-06T00:52:26.496Z,0
2018-03-06T00:53:27.204Z,0
2018-03-06T00:54:27.914Z,0
2018-03-06T00:55:28.617Z,0
2018-03-06T00:56:29.322Z,0
2018-03-06T00:57:30.042Z,0
2018-03-06T00:58:30.752Z,0
2018-03-06T00:59:31.452Z,0
2018-03-06T01:00:32.159Z,0
2018-03-06T01:01:32.864Z,0
2018-03-06T01:02:33.570Z,0
2018-03-06T01:03:34.477Z,0
2018-03-06T01:04:35.183Z,0
2018-03-06T01:05:35.889Z,0
2018-03-06T01:06:36.592Z,0
2018-03-06T01:07:37.307Z,0
2018-03-06T01:08:38.018Z,0
2018-03-06T01:09:38.972Z,0
2018-03-06T01:10:39.687Z,0
2018-03-06T01:11:40.394Z,0
2018-03-06T01:12:41.115Z,0
2018-03-06T01:13:41.821Z,0
2018-03-06T01:14:42.776Z,0
2018-03-06T01:15:43.484Z,0
2018-03-06T01:16:44.200Z,0
2018-03-06T01:17:44.906Z,0
2018-03-06T01:18:45.610Z,0
2018-03-06T01:19:46.315Z,0
2018-03-06T01:20:47.022Z,0
2018-03-06T01:21:47.739Z,0
2018-03-06T01:22:48.447Z,0
2018-03-06T01:23:49.150Z,0
2018-03-06T01:24:49.857Z,0
2018-03-06T01:25:50.560Z,0
2018-03-06T01:26:51.265Z,0
2018-03-06T01:27:51.964Z,0
2018-03-06T01:28:52.670Z,0
2018-03-06T01:29:53.369Z,0
2018-03-06T01:30:54.073Z,0
2018-03-06T01:31:54.778Z,0
2018-03-06T01:32:55.482Z,0
2018-03-06T01:33:56.187Z,0
2018-03-06T01:34:56.891Z,0
2018-03-06T01:35:57.602Z,0
2018-03-06T01:36:58.315Z,0
2018-03-06T01:37:59.233Z,0
2018-03-06T01:38:59.941Z,0
2018-03-06T01:40:00.647Z,0
2018-03-06T01:41:01.351Z,0
2018-03-06T01:42:02.069Z,0
2018-03-06T01:43:03.425Z,0
2018-03-06T01:44:04.132Z,0
2018-03-06T01:45:04.836Z,0
2018-03-06T01:46:05.540Z,0
2018-03-06T01:47:06.246Z,0
2018-03-06T01:48:06.951Z,0
2018-03-06T01:49:07.658Z,0
2018-03-06T01:50:08.363Z,0
2018-03-06T01:51:09.080Z,0
2018-03-06T01:52:09.784Z,0
2018-03-06T01:53:10.482Z,0
2018-03-06T01:54:11.187Z,0
2018-03-06T01:55:11.892Z,0
2018-03-06T01:56:12.617Z,0
2018-03-06T01:57:13.316Z,0
2018-03-06T01:58:14.014Z,0
2018-03-06T01:59:14.718Z,0
2018-03-06T02:00:15.434Z,0
2018-03-06T02:01:16.142Z,0
2018-03-06T02:02:16.848Z,0
2018-03-06T02:03:17.554Z,0
2018-03-06T02:04:18.265Z,0
2018-03-06T02:05:18.971Z,0
2018-03-06T02:06:19.681Z,0
2018-03-06T02:07:20.383Z,0
2018-03-06T02:08:21.087Z,0
2018-03-06T02:09:21.794Z,0
2018-03-06T02:10:22.510Z,0
2018-03-06T02:11:23.214Z,0
2018-03-06T02:12:23.932Z,0
2018-03-06T02:13:24.645Z,0
2018-03-06T02:14:25.350Z,0
2018-03-06T02:15:26.056Z,0
2018-03-06T02:16:26.774Z,0
2018-03-06T02:17:27.492Z,0
2018-03-06T02:18:28.199Z,0
2018-03-06T02:19:28.904Z,0
2018-03-06T02:20:29.609Z,0
2018-03-06T02:21:30.325Z,0
2018-03-06T02:22:31.040Z,0
2018-03-06T02:23:31.745Z,0
2018-03-06T02:24:32.450Z,0
2018-03-06T02:25:33.153Z,0
2018-03-06T02:26:33.868Z,0
2018-03-06T02:27:34.583Z,0
2018-03-06T02:28:35.300Z,0
2018-03-06T02:29:36.018Z,0
2018-03-06T02:30:36.724Z,0
2018-03-06T02:31:37.439Z,0
2018-03-06T02:32:38.144Z,0
2018-03-06T02:33:38.858Z,0
2018-03-06T02:34:39.569Z,0
2018-03-06T02:35:40.275Z,0
2018-03-06T02:36:40.989Z,0
2018-03-06T02:37:46.738Z,0
2018-03-06T02:38:47.434Z,0
2018-03-06T02:39:48.149Z,0
2018-03-06T02:40:48.854Z,0
2018-03-06T02:41:49.575Z,0
2018-03-06T02:42:50.276Z,0
2018-03-06T02:43:50.975Z,0
2018-03-06T02:44:51.679Z,0
2018-03-06T02:45:52.383Z,0
2018-03-06T02:46:53.089Z,0
2018-03-06T02:47:53.802Z,0
2018-03-06T02:48:54.522Z,0
2018-03-06T02:49:55.211Z,0
2018-03-06T02:50:55.916Z,0
2018-03-06T02:51:56.619Z,0
2018-03-06T02:52:57.335Z,0
2018-03-06T02:53:58.044Z,0
2018-03-06T02:54:58.743Z,0
2018-03-06T02:55:59.648Z,0
2018-03-06T02:57:00.351Z,0
2018-03-06T02:58:01.063Z,0
2018-03-06T02:59:01.766Z,0
2018-03-06T03:00:02.468Z,0
2018-03-06T03:01:03.172Z,0
2018-03-06T03:02:04.105Z,0
2018-03-06T03:03:04.811Z,0
2018-03-06T03:04:05.523Z,0
2018-03-06T03:05:06.233Z,0
2018-03-06T03:06:07.092Z,0
2018-03-06T03:07:07.790Z,0
2018-03-06T03:08:08.507Z,0
2018-03-06T03:09:09.216Z,0
2018-03-06T03:10:09.920Z,0
2018-03-06T03:11:10.626Z,0
2018-03-06T03:12:11.327Z,0
2018-03-06T03:13:12.038Z,0
2018-03-06T03:14:12.743Z,0
2018-03-06T03:15:13.450Z,0
2018-03-06T03:16:14.152Z,0
2018-03-06T03:17:14.866Z,0
2018-03-06T03:18:15.569Z,0
2018-03-06T03:19:16.266Z,0
2018-03-06T03:20:16.982Z,0
2018-03-06T03:21:17.677Z,0
2018-03-06T03:22:18.393Z,0
2018-03-06T03:23:19.110Z,0
2018-03-06T03:24:19.813Z,0
2018-03-06T03:25:20.530Z,0
2018-03-06T03:26:21.247Z,0
2018-03-06T03:27:21.951Z,0
2018-03-06T03:28:22.655Z,0
2018-03-06T03:29:23.356Z,0
2018-03-06T03:30:24.062Z,0
2018-03-06T03:31:24.768Z,0
2018-03-06T03:32:28.511Z,0
2018-03-06T03:33:29.215Z,0
2018-03-06T03:34:29.920Z,0
2018-03-06T03:35:30.633Z,0
2018-03-06T03:36:31.336Z,0
2018-03-06T03:37:32.040Z,0
2018-03-06T03:38:32.755Z,0
2018-03-06T03:39:33.459Z,0
2018-03-06T03:40:34.163Z,0
2018-03-06T03:41:34.868Z,0
2018-03-06T03:42:35.571Z,0
2018-03-06T03:43:36.276Z,0
2018-03-06T03:44:36.984Z,0
2018-03-06T03:45:37.720Z,0
2018-03-06T03:46:38.416Z,0
2018-03-06T03:47:39.121Z,0
2018-03-06T03:48:39.828Z,0
2018-03-06T03:49:40.534Z,0
2018-03-06T03:50:41.238Z,0
2018-03-06T03:51:41.944Z,0
2018-03-06T03:52:42.649Z,0
2018-03-06T03:53:43.366Z,0
2018-03-06T03:54:44.070Z,0
2018-03-06T03:55:44.775Z,0
2018-03-06T03:56:45.780Z,0
2018-03-06T03:57:46.485Z,0
2018-03-06T03:58:47.201Z,0
2018-03-06T03:59:47.903Z,0
2018-03-06T04:00:48.608Z,0
2018-03-06T04:01:49.312Z,0
2018-03-06T04:02:50.019Z,0
2018-03-06T04:03:50.724Z,0
2018-03-06T04:04:51.434Z,0
2018-03-06T04:05:52.140Z,0
2018-03-06T04:06:52.843Z,0
2018-03-06T04:07:53.549Z,0
2018-03-06T04:08:54.256Z,0
2018-03-06T04:09:54.971Z,0
2018-03-06T04:10:55.666Z,0
2018-03-06T04:11:56.370Z,0
2018-03-06T04:12:57.075Z,0
2018-03-06T04:13:57.781Z,0
2018-03-06T04:14:58.487Z,0
2018-03-06T04:15:59.191Z,0
2018-03-06T04:16:59.895Z,0
2018-03-06T04:19:23.837Z,0
2018-03-06T04:20:24.553Z,0
2018-03-06T04:21:25.257Z,0
2018-03-06T04:22:25.959Z,0
2018-03-06T04:23:26.664Z,0
2018-03-06T04:24:27.381Z,0
2018-03-06T04:25:28.090Z,0
2018-03-06T04:26:28.791Z,0
2018-03-06T04:27:29.509Z,0
2018-03-06T04:28:30.222Z,0
2018-03-06T04:29:30.927Z,0
2018-03-06T04:30:31.832Z,0
2018-03-06T04:31:32.546Z,0
2018-03-06T04:32:33.251Z,0
2018-03-06T04:33:33.955Z,0
2018-03-06T04:34:34.660Z,0
2018-03-06T04:35:35.376Z,0
2018-03-06T04:36:36.087Z,0
2018-03-06T04:37:36.791Z,0
2018-03-06T04:38:37.494Z,0
2018-03-06T04:39:38.203Z,0
2018-03-06T04:40:43.940Z,0
2018-03-06T04:41:44.641Z,0
2018-03-06T04:42:45.346Z,0
2018-03-06T04:43:46.052Z,0
2018-03-06T04:44:51.799Z,0
2018-03-06T04:45:53.505Z,0
2018-03-06T04:46:54.213Z,0
2018-03-06T04:47:54.917Z,0
2018-03-06T04:48:55.634Z,0
2018-03-06T04:49:56.350Z,0
2018-03-06T04:50:57.054Z,0
2018-03-06T04:51:57.767Z,0
2018-03-06T04:52:58.469Z,0
2018-03-06T04:53:59.174Z,0
2018-03-06T04:54:59.879Z,0
2018-03-06T04:56:00.582Z,0
2018-03-06T04:57:01.292Z,0
2018-03-06T04:58:01.994Z,0
2018-03-06T04:59:02.699Z,0
2018-03-06T05:00:03.404Z,0
2018-03-06T05:01:04.112Z,0
2018-03-06T05:02:04.826Z,0
2018-03-06T05:03:05.530Z,0
2018-03-06T05:04:06.235Z,0
2018-03-06T05:05:06.940Z,0
2018-03-06T05:06:07.646Z,0
2018-03-06T05:07:08.351Z,0
2018-03-06T05:08:09.057Z,0
2018-03-06T05:09:09.761Z,0
2018-03-06T05:10:10.468Z,0
2018-03-06T05:11:11.173Z,0
2018-03-06T05:12:11.878Z,0
2018-03-06T05:13:12.584Z,0
2018-03-06T05:14:13.287Z,0
2018-03-06T05:15:13.990Z,0
2018-03-06T05:16:14.695Z,0
2018-03-06T05:17:15.398Z,0
2018-03-06T05:18:16.115Z,0
2018-03-06T05:19:16.820Z,0
2018-03-06T05:20:17.526Z,0
2018-03-06T05:21:18.244Z,0
2018-03-06T05:22:18.948Z,0
2018-03-06T05:23:19.663Z,0
2018-03-06T05:24:20.366Z,0
2018-03-06T05:25:21.080Z,0
2018-03-06T05:26:21.784Z,0
2018-03-06T05:27:22.497Z,0
2018-03-06T05:28:23.202Z,0
2018-03-06T05:29:23.906Z,0
2018-03-06T05:30:24.609Z,0
2018-03-06T05:31:25.316Z,0
2018-03-06T05:32:26.029Z,0
2018-03-06T05:33:26.739Z,0
2018-03-06T05:34:27.442Z,0
2018-03-06T05:35:28.147Z,0
2018-03-06T05:36:28.850Z,0
2018-03-06T05:37:29.554Z,0
2018-03-06T05:38:30.258Z,0
2018-03-06T05:39:30.962Z,0
2018-03-06T05:40:31.667Z,0
2018-03-06T05:41:32.370Z,0
2018-03-06T05:42:33.087Z,0
2018-03-06T05:43:33.791Z,0
2018-03-06T05:44:34.495Z,0
2018-03-06T05:45:35.199Z,0
2018-03-06T05:46:35.906Z,0
2018-03-06T05:47:36.619Z,0
2018-03-06T05:48:37.324Z,0
2018-03-06T05:49:38.030Z,0
2018-03-06T05:50:38.735Z,0
2018-03-06T05:51:39.455Z,0
2018-03-06T05:52:40.167Z,0
2018-03-06T05:53:40.882Z,0
2018-03-06T05:54:41.586Z,0
2018-03-06T05:55:42.304Z,0
2018-03-06T05:56:43.008Z,0
2018-03-06T05:57:43.713Z,0
2018-03-06T05:58:44.417Z,0
2018-03-06T05:59:45.124Z,0
2018-03-06T06:00:45.830Z,0
2018-03-06T06:01:46.537Z,5
2018-03-06T06:02:47.243Z,5
2018-03-06T06:03:47.960Z,5
2018-03-06T06:04:48.667Z,5
2018-03-06T06:05:49.374Z,5
2018-03-06T06:06:50.081Z,5
2018-03-06T06:07:50.787Z,5
2018-03-06T06:08:51.496Z,10
2018-03-06T06:09:52.204Z,10
2018-03-06T06:10:52.918Z,10
2018-03-06T06:11:53.633Z,10
2018-03-06T06:12:54.352Z,10
2018-03-06T06:13:55.063Z,15
2018-03-06T06:14:55.771Z,15
2018-03-06T06:15:56.478Z,15
2018-03-06T06:16:57.185Z,15
2018-03-06T06:17:57.893Z,15
2018-03-06T06:18:58.612Z,20
2018-03-06T06:19:59.320Z,20
2018-03-06T06:21:00.027Z,20
2018-03-06T06:22:00.734Z,20
2018-03-06T06:23:01.442Z,25
2018-03-06T06:24:02.163Z,25
2018-03-06T06:25:02.870Z,30
2018-03-06T06:26:03.576Z,30
2018-03-06T06:27:04.284Z,35
2018-03-06T06:28:04.992Z,35
2018-03-06T06:29:05.700Z,35
2018-03-06T06:30:06.407Z,35
2018-03-06T06:31:07.114Z,40
2018-03-06T06:32:07.826Z,40
2018-03-06T06:33:08.532Z,45
2018-03-06T06:34:09.241Z,50
2018-03-06T06:35:09.961Z,50
2018-03-06T06:36:10.668Z,55
2018-03-06T06:37:11.377Z,60
2018-03-06T06:38:12.087Z,65
2018-03-06T06:39:12.843Z,70
2018-03-06T06:40:13.520Z,75
2018-03-06T06:41:14.227Z,75
2018-03-06T06:42:14.936Z,80
2018-03-06T06:43:15.646Z,85
2018-03-06T06:44:16.368Z,90
2018-03-06T06:45:17.080Z,90
2018-03-06T06:46:17.802Z,95
2018-03-06T06:47:18.512Z,95
2018-03-06T06:48:19.220Z,95
2018-03-06T06:49:19.932Z,100
2018-03-06T06:50:20.654Z,110
2018-03-06T06:51:21.365Z,100
2018-03-06T06:52:22.098Z,90
2018-03-06T06:53:22.785Z,95
2018-03-06T06:54:23.499Z,100
2018-03-06T06:55:24.211Z,100
2018-03-06T06:56:24.924Z,105
2018-03-06T06:57:25.645Z,105
2018-03-06T06:58:26.359Z,105
2018-03-06T06:59:27.081Z,105
2018-03-06T07:00:27.794Z,105
2018-03-06T07:01:28.506Z,105
2018-03-06T07:02:29.218Z,110
2018-03-06T07:03:29.931Z,120
2018-03-06T07:04:30.640Z,125
2018-03-06T07:05:31.354Z,130
2018-03-06T07:06:32.065Z,105
2018-03-06T07:07:32.787Z,95
2018-03-06T07:08:33.501Z,100
2018-03-06T07:09:34.214Z,100
2018-03-06T07:10:34.928Z,110
2018-03-06T07:11:35.654Z,110
2018-03-06T07:12:36.366Z,120
2018-03-06T07:13:37.078Z,125
2018-03-06T07:14:37.789Z,130
2018-03-06T07:15:38.502Z,155
2018-03-06T07:16:39.213Z,165
2018-03-06T07:17:39.942Z,175
2018-03-06T07:18:40.690Z,180
2018-03-06T07:19:41.399Z,195
2018-03-06T07:20:42.112Z,200
2018-03-06T07:21:42.823Z,210
2018-03-06T07:22:43.537Z,220
2018-03-06T07:23:44.302Z,225
2018-03-06T07:24:44.975Z,230
2018-03-06T07:25:45.700Z,240
2018-03-06T07:26:46.427Z,220
2018-03-06T07:27:47.141Z,260
2018-03-06T07:28:47.853Z,270
2018-03-06T07:29:48.567Z,275
2018-03-06T07:30:49.285Z,280
2018-03-06T07:31:50.016Z,230
2018-03-06T07:32:50.734Z,285
2018-03-06T07:33:51.451Z,300
2018-03-06T07:34:52.166Z,320
2018-03-06T07:35:52.881Z,320
2018-03-06T07:36:53.597Z,325
2018-03-06T07:37:54.314Z,335
2018-03-06T07:38:55.033Z,340
2018-03-06T07:39:55.748Z,345
2018-03-06T07:40:56.464Z,350
2018-03-06T07:41:57.181Z,350
2018-03-06T07:42:57.897Z,355
2018-03-06T07:43:58.618Z,355
2018-03-06T07:44:59.341Z,355
2018-03-06T07:46:00.052Z,355
2018-03-06T07:47:00.772Z,365
2018-03-06T07:48:01.490Z,370
2018-03-06T07:49:02.206Z,370
2018-03-06T07:50:02.935Z,370
2018-03-06T07:51:03.653Z,385
2018-03-06T07:52:04.373Z,385
2018-03-06T07:53:05.097Z,390
2018-03-06T07:54:05.836Z,385
2018-03-06T07:55:06.545Z,395
2018-03-06T07:56:07.260Z,395
2018-03-06T07:57:07.979Z,400
2018-03-06T07:58:08.711Z,400
2018-03-06T07:59:09.429Z,410
2018-03-06T08:00:10.157Z,420
2018-03-06T08:01:10.887Z,425
2018-03-06T08:02:11.618Z,430
2018-03-06T08:03:12.337Z,445
2018-03-06T08:04:13.057Z,450
2018-03-06T08:05:13.775Z,460
2018-03-06T08:06:14.494Z,465
2018-03-06T08:07:15.216Z,480
2018-03-06T08:08:15.945Z,480
2018-03-06T08:09:16.665Z,475
2018-03-06T08:10:17.384Z,470
2018-03-06T08:11:18.104Z,480
2018-03-06T08:12:18.825Z,520
2018-03-06T08:13:19.545Z,540
2018-03-06T08:14:20.267Z,545
2018-03-06T08:15:20.988Z,565
2018-03-06T08:16:21.729Z,585
2018-03-06T08:17:22.432Z,555
2018-03-06T08:18:23.154Z,540
2018-03-06T08:19:23.876Z,555
2018-03-06T08:20:24.596Z,575
2018-03-06T08:21:25.318Z,580
2018-03-06T08:22:26.042Z,600
2018-03-06T08:23:26.765Z,615
2018-03-06T08:24:27.490Z,615
2018-03-06T08:25:28.221Z,630
2018-03-06T08:26:28.943Z,635
2018-03-06T08:27:29.671Z,635
2018-03-06T08:28:30.392Z,640
2018-03-06T08:29:31.116Z,660
2018-03-06T08:30:31.838Z,580
2018-03-06T08:31:32.562Z,590
2018-03-06T08:32:33.292Z,625
2018-03-06T08:33:34.017Z,690
2018-03-06T08:34:34.737Z,725
2018-03-06T08:35:35.461Z,725
2018-03-06T08:36:36.183Z,745
2018-03-06T08:37:36.918Z,760
2018-03-06T08:38:37.642Z,765
2018-03-06T08:39:38.366Z,775
2018-03-06T08:40:39.096Z,775
2018-03-06T08:41:39.827Z,795
2018-03-06T08:42:40.563Z,785
2018-03-06T08:43:41.290Z,780
2018-03-06T08:44:42.025Z,760
2018-03-06T08:45:42.749Z,710
2018-03-06T08:46:43.477Z,745
2018-03-06T08:47:44.203Z,800
2018-03-06T08:48:44.943Z,785
2018-03-06T08:49:45.667Z,790
2018-03-06T08:50:46.392Z,840
2018-03-06T08:51:47.118Z,850
2018-03-06T08:52:47.844Z,825
2018-03-06T08:53:48.572Z,835
2018-03-06T08:54:49.302Z,875
2018-03-06T08:55:50.031Z,880
2018-03-06T08:56:50.772Z,935
2018-03-06T08:57:51.501Z,875
2018-03-06T08:58:52.231Z,840
2018-03-06T08:59:52.986Z,765
2018-03-06T09:00:53.690Z,715
2018-03-06T09:01:54.419Z,765
2018-03-06T09:02:55.150Z,780
2018-03-06T09:03:55.880Z,780
2018-03-06T09:04:56.612Z,790
2018-03-06T09:05:57.343Z,810
2018-03-06T09:06:58.074Z,850
2018-03-06T09:07:58.804Z,895
2018-03-06T09:08:59.549Z,890
2018-03-06T09:10:00.277Z,865
2018-03-06T09:11:01.018Z,910
2018-03-06T09:12:01.750Z,865
2018-03-06T09:13:02.483Z,905
2018-03-06T09:14:03.214Z,875
2018-03-06T09:15:03.943Z,910
2018-03-06T09:16:04.676Z,945
2018-03-06T09:17:05.408Z,980
2018-03-06T09:18:06.140Z,975
2018-03-06T09:19:06.869Z,910
2018-03-06T09:20:07.602Z,770
2018-03-06T09:21:08.336Z,920
2018-03-06T09:22:09.070Z,945
2018-03-06T09:23:09.800Z,960
2018-03-06T09:24:10.544Z,975
2018-03-06T09:25:11.277Z,930
2018-03-06T09:26:12.011Z,1065
2018-03-06T09:27:12.748Z,1070
2018-03-06T09:28:13.489Z,1055
2018-03-06T09:29:14.223Z,1075
2018-03-06T09:30:14.952Z,1065
2018-03-06T09:31:15.687Z,1115
2018-03-06T09:32:16.420Z,1095
2018-03-06T09:33:17.155Z,1125
2018-03-06T09:34:17.887Z,1125
2018-03-06T09:35:18.621Z,1110
2018-03-06T09:36:19.354Z,985
2018-03-06T09:37:20.089Z,1105
2018-03-06T09:38:20.839Z,1060
2018-03-06T09:39:21.567Z,1090
2018-03-06T09:40:22.301Z,1060
2018-03-06T09:41:23.037Z,1055
2018-03-06T09:42:23.781Z,1075
2018-03-06T09:43:24.519Z,1075
2018-03-06T09:44:25.251Z,1045
2018-03-06T09:45:25.986Z,1045
2018-03-06T09:46:26.720Z,1035
2018-03-06T09:47:27.468Z,1085
2018-03-06T09:48:28.201Z,1110
2018-03-06T09:49:28.937Z,1095
2018-03-06T09:50:29.672Z,1105
2018-03-06T09:51:30.407Z,1115
2018-03-06T09:52:31.138Z,1070
2018-03-06T09:53:31.885Z,1175
2018-03-06T09:54:32.622Z,1175
2018-03-06T09:55:33.351Z,1105
2018-03-06T09:56:34.083Z,1130
2018-03-06T09:57:34.858Z,1150
2018-03-06T09:58:35.550Z,1090
2018-03-06T09:59:36.283Z,1140
2018-03-06T10:00:37.013Z,1055
2018-03-06T10:01:37.744Z,1030
2018-03-06T10:02:38.486Z,1225
2018-03-06T10:03:39.228Z,1220
2018-03-06T10:04:39.958Z,1215
2018-03-06T10:05:40.702Z,1230
2018-03-06T10:06:41.434Z,1220
2018-03-06T10:07:42.177Z,1225
2018-03-06T10:08:42.910Z,1220
2018-03-06T10:09:43.654Z,1210
2018-03-06T10:10:44.387Z,1185
2018-03-06T10:11:45.118Z,1280
2018-03-06T10:12:45.852Z,1255
2018-03-06T10:13:46.584Z,1335
2018-03-06T10:14:47.331Z,1305
2018-03-06T10:15:48.063Z,1320
2018-03-06T10:16:48.810Z,1340
2018-03-06T10:17:49.557Z,1270
2018-03-06T10:18:50.298Z,1330
2018-03-06T10:19:51.059Z,1285
2018-03-06T10:20:51.791Z,1270
2018-03-06T10:21:52.523Z,1210
2018-03-06T10:22:53.255Z,1170
2018-03-06T10:23:54.006Z,1040
2018-03-06T10:24:54.739Z,1145
2018-03-06T10:25:55.530Z,1220
2018-03-06T10:26:56.272Z,1165
2018-03-06T10:27:57.006Z,990
2018-03-06T10:28:57.751Z,1165
2018-03-06T10:29:58.501Z,1225
2018-03-06T10:30:59.233Z,1255
2018-03-06T10:31:59.983Z,1300
2018-03-06T10:33:00.716Z,1240
2018-03-06T10:34:01.452Z,1175
2018-03-06T10:35:02.189Z,1245
2018-03-06T10:36:02.938Z,1305
2018-03-06T10:37:03.665Z,1175
2018-03-06T10:38:04.441Z,1205
2018-03-06T10:39:05.188Z,1175
2018-03-06T10:40:05.915Z,1315
2018-03-06T10:41:06.705Z,1310
2018-03-06T10:42:07.437Z,1310
2018-03-06T10:43:08.170Z,1410
2018-03-06T10:44:08.903Z,1455
2018-03-06T10:45:09.635Z,1385
2018-03-06T10:46:10.367Z,1280
2018-03-06T10:47:11.137Z,1195
2018-03-06T10:48:11.870Z,1110
2018-03-06T10:49:12.613Z,1055
2018-03-06T10:50:13.343Z,1040
2018-03-06T10:51:14.131Z,1005
2018-03-06T10:52:14.867Z,1005
2018-03-06T10:53:15.625Z,1050
2018-03-06T10:54:16.387Z,1060
2018-03-06T10:55:17.121Z,1040
2018-03-06T10:56:17.859Z,1030
2018-03-06T10:57:18.593Z,1050
2018-03-06T10:58:19.327Z,1120
2018-03-06T10:59:20.069Z,1280
2018-03-06T11:00:20.833Z,1370
2018-03-06T11:01:21.566Z,1415
2018-03-06T11:02:22.297Z,1340
2018-03-06T11:03:23.029Z,1320
2018-03-06T11:04:23.763Z,1280
2018-03-06T11:05:24.492Z,1005
2018-03-06T11:06:25.287Z,1210
2018-03-06T11:07:26.030Z,1190
2018-03-06T11:08:26.763Z,1525
2018-03-06T11:09:27.567Z,1535
2018-03-06T11:10:28.302Z,1455
2018-03-06T11:11:29.047Z,1290
2018-03-06T11:12:29.781Z,950
2018-03-06T11:13:30.514Z,1090
2018-03-06T11:14:31.246Z,1470
2018-03-06T11:15:31.978Z,1540
2018-03-06T11:16:32.708Z,1480
2018-03-06T11:17:33.444Z,1470
2018-03-06T11:18:34.191Z,1535
2018-03-06T11:19:34.920Z,1590
2018-03-06T11:20:35.652Z,1490
2018-03-06T11:21:36.397Z,1515
2018-03-06T11:22:37.140Z,1415
2018-03-06T11:23:37.872Z,1390
2018-03-06T11:24:38.687Z,1370
2018-03-06T11:25:39.340Z,1370
2018-03-06T11:26:40.074Z,1440
2018-03-06T11:27:40.812Z,1420
2018-03-06T11:28:41.540Z,1500
2018-03-06T11:29:42.273Z,1525
2018-03-06T11:30:43.010Z,1535
2018-03-06T11:31:43.744Z,1395
2018-03-06T11:32:44.475Z,1330
2018-03-06T11:33:45.220Z,1175
2018-03-06T11:34:45.966Z,1300
2018-03-06T11:35:46.698Z,1485
2018-03-06T11:36:47.443Z,1430
2018-03-06T11:37:48.187Z,1405
2018-03-06T11:38:48.920Z,1335
2018-03-06T11:39:49.665Z,1275
2018-03-06T11:40:50.398Z,1245
2018-03-06T11:41:51.132Z,1200
2018-03-06T11:42:51.864Z,1245
2018-03-06T11:43:52.608Z,1225
2018-03-06T11:44:53.340Z,1235
2018-03-06T11:45:54.074Z,1185
2018-03-06T11:46:54.809Z,1190
2018-03-06T11:47:55.542Z,1140
2018-03-06T11:48:56.286Z,995
2018-03-06T11:49:57.031Z,1055
2018-03-06T11:50:57.775Z,1015
2018-03-06T11:51:58.507Z,1035
2018-03-06T11:52:59.246Z,1035
2018-03-06T11:53:59.978Z,1080
2018-03-06T11:55:00.712Z,1095
2018-03-06T11:56:01.482Z,1075
2018-03-06T11:57:02.174Z,1020
2018-03-06T11:58:02.905Z,1000
2018-03-06T11:59:03.643Z,995
2018-03-06T12:00:04.382Z,1025
2018-03-06T12:01:05.114Z,1035
2018-03-06T12:02:05.867Z,1040
2018-03-06T12:03:06.577Z,1055
2018-03-06T12:04:07.309Z,945
2018-03-06T12:05:08.041Z,775
2018-03-06T12:06:08.783Z,750
2018-03-06T12:07:09.526Z,705
2018-03-06T12:08:10.243Z,700
2018-03-06T12:09:10.975Z,645
2018-03-06T12:10:11.705Z,640
2018-03-06T12:11:12.433Z,620
2018-03-06T12:12:13.172Z,700
2018-03-06T12:13:13.914Z,630
2018-03-06T12:14:14.646Z,680
2018-03-06T12:15:15.377Z,760
2018-03-06T12:16:16.114Z,800
2018-03-06T12:17:16.840Z,745
2018-03-06T12:18:17.570Z,840
2018-03-06T12:19:18.301Z,935
2018-03-06T12:20:19.032Z,905
2018-03-06T12:21:19.776Z,845
2018-03-06T12:22:20.519Z,870
2018-03-06T12:23:21.251Z,780
2018-03-06T12:24:21.981Z,795
2018-03-06T12:25:22.726Z,785
2018-03-06T12:26:23.455Z,780
2018-03-06T12:27:24.187Z,795
2018-03-06T12:28:24.921Z,830
2018-03-06T12:29:25.676Z,830
2018-03-06T12:30:26.380Z,795
2018-03-06T12:31:27.114Z,785
2018-03-06T12:32:27.857Z,770
2018-03-06T12:33:28.589Z,725
2018-03-06T12:34:29.320Z,695
2018-03-06T12:35:30.057Z,665
2018-03-06T12:36:30.794Z,665
2018-03-06T12:37:31.524Z,685
2018-03-06T12:38:32.268Z,690
2018-03-06T12:39:33.009Z,680
2018-03-06T12:40:33.740Z,650
2018-03-06T12:41:34.482Z,680
2018-03-06T12:42:35.219Z,670
2018-03-06T12:43:35.962Z,665
2018-03-06T12:44:36.695Z,675
2018-03-06T12:45:37.425Z,670
2018-03-06T12:46:38.154Z,685
2018-03-06T12:47:38.886Z,700
2018-03-06T12:48:39.626Z,700
2018-03-06T12:49:40.357Z,745
2018-03-06T12:50:41.098Z,750
2018-03-06T12:51:41.826Z,795
2018-03-06T12:52:42.557Z,785
2018-03-06T12:53:43.286Z,750
2018-03-06T12:54:44.082Z,760
2018-03-06T12:55:44.746Z,780
2018-03-06T12:56:45.485Z,825
2018-03-06T12:57:46.216Z,835
2018-03-06T12:58:46.947Z,815
2018-03-06T12:59:47.690Z,795
2018-03-06T13:00:48.436Z,820
2018-03-06T13:01:49.162Z,805
2018-03-06T13:02:49.892Z,825
2018-03-06T13:03:50.620Z,810
2018-03-06T13:04:51.354Z,800
2018-03-06T13:05:52.081Z,780
2018-03-06T13:06:52.809Z,815
2018-03-06T13:07:53.540Z,830
2018-03-06T13:08:54.269Z,825
2018-03-06T13:09:55.000Z,835
2018-03-06T13:10:55.735Z,830
2018-03-06T13:11:56.463Z,730
2018-03-06T13:12:57.193Z,820
2018-03-06T13:13:57.921Z,825
2018-03-06T13:14:58.651Z,795
2018-03-06T13:15:59.390Z,795
2018-03-06T13:17:00.123Z,765
2018-03-06T13:18:00.852Z,765
2018-03-06T13:19:01.584Z,755
2018-03-06T13:20:02.314Z,745
2018-03-06T13:21:03.046Z,785
2018-03-06T13:22:03.775Z,800
2018-03-06T13:23:04.507Z,800
2018-03-06T13:24:05.237Z,835
2018-03-06T13:25:05.966Z,825
2018-03-06T13:26:06.697Z,820
2018-03-06T13:27:07.429Z,830
2018-03-06T13:28:08.161Z,790
2018-03-06T13:29:08.891Z,820
2018-03-06T13:30:09.634Z,845
2018-03-06T13:31:10.368Z,775
2018-03-06T13:32:11.099Z,770
2018-03-06T13:33:11.827Z,775
2018-03-06T13:34:12.555Z,815
2018-03-06T13:35:13.285Z,820
2018-03-06T13:36:14.009Z,820
2018-03-06T13:37:14.738Z,835
2018-03-06T13:38:15.472Z,810
2018-03-06T13:39:16.203Z,800
2018-03-06T13:40:16.932Z,865
2018-03-06T13:41:17.660Z,815
2018-03-06T13:42:18.422Z,810
2018-03-06T13:43:19.152Z,820
2018-03-06T13:44:19.883Z,810
2018-03-06T13:45:20.682Z,790
2018-03-06T13:46:21.424Z,790
2018-03-06T13:47:22.190Z,790
2018-03-06T13:48:22.920Z,780
2018-03-06T13:49:23.650Z,750
2018-03-06T13:50:24.384Z,675
2018-03-06T13:51:25.114Z,750
2018-03-06T13:52:25.843Z,760
2018-03-06T13:53:26.588Z,745
2018-03-06T13:54:27.322Z,765
2018-03-06T13:55:28.061Z,750
2018-03-06T13:56:28.788Z,690
2018-03-06T13:57:29.516Z,675
2018-03-06T13:58:30.247Z,655
2018-03-06T13:59:30.979Z,685
2018-03-06T14:00:31.706Z,680
2018-03-06T14:01:32.436Z,675
2018-03-06T14:02:33.167Z,715
2018-03-06T14:03:33.911Z,725
2018-03-06T14:04:34.690Z,665
2018-03-06T14:05:35.431Z,655
2018-03-06T14:06:36.160Z,665
2018-03-06T14:07:36.906Z,670
2018-03-06T14:08:37.633Z,685
2018-03-06T14:09:38.365Z,670
2018-03-06T14:10:39.094Z,690
2018-03-06T14:11:39.823Z,735
2018-03-06T14:12:40.562Z,740
2018-03-06T14:13:41.297Z,755
2018-03-06T14:14:42.052Z,725
2018-03-06T14:15:42.780Z,570
2018-03-06T14:16:43.511Z,660
2018-03-06T14:17:44.301Z,705
2018-03-06T14:18:45.034Z,685
2018-03-06T14:19:45.765Z,645